PGT91U LTBJ-LTCG
Flight info
| Callsign | PGT91U |
|---|---|
| Flight time | 1h 37m |
| Altitude | 35000 |
| Route | KULAR UT54 KFK UR32 HAY UT54 SIV UT284 ARSUG/N0409F270 M11 TEMEL |
| Aircraft | A320/M-SDE3FGHIRWY/LB1 |
Departure
| Time | 2026-05-05 16:26 |
|---|---|
| Airport | Adnan Menderes International Airport (LTBJ) |
Arrival
| Time | 2026-05-05 18:03 |
|---|---|
| Airport | Trabzon International Airport (LTCG) |
| Time | Latitude | Longitude | Altitude | Speed | Heading |
|---|---|---|---|---|---|
| 2026-05-05 15:54 | 38.29200 | 27.15082 | 412 ft | 0 kts | 256° |
| 2026-05-05 16:16 | 38.29212 | 27.15141 | 410 ft | 4 kts | 233° |
| 2026-05-05 16:17 | 38.29255 | 27.15157 | 405 ft | 1 kts | 167° |
| 2026-05-05 16:17 | 38.29256 | 27.15157 | 405 ft | 0 kts | 167° |
| 2026-05-05 16:21 | 38.29165 | 27.15184 | 411 ft | 16 kts | 166° |
| 2026-05-05 16:22 | 38.28934 | 27.15321 | 412 ft | 10 kts | 165° |
| 2026-05-05 16:22 | 38.28718 | 27.15386 | 414 ft | 21 kts | 167° |
| 2026-05-05 16:23 | 38.28467 | 27.15462 | 410 ft | 17 kts | 166° |
| 2026-05-05 16:23 | 38.28361 | 27.15494 | 414 ft | 15 kts | 166° |
| 2026-05-05 16:23 | 38.28185 | 27.15547 | 415 ft | 11 kts | 166° |
| 2026-05-05 16:24 | 38.28114 | 27.15569 | 417 ft | 10 kts | 166° |
| 2026-05-05 16:24 | 38.27992 | 27.15606 | 414 ft | 26 kts | 166° |
| 2026-05-05 16:24 | 38.27766 | 27.15754 | 411 ft | 14 kts | 77° |
| 2026-05-05 16:25 | 38.27791 | 27.15874 | 416 ft | 14 kts | 62° |
| 2026-05-05 16:25 | 38.28093 | 27.15826 | 415 ft | 66 kts | 346° |
| 2026-05-05 16:25 | 38.28752 | 27.15627 | 417 ft | 125 kts | 346° |
| 2026-05-05 16:26 | 38.30828 | 27.15029 | 1153 ft | 158 kts | 347° |
| 2026-05-05 16:26 | 38.33139 | 27.14374 | 1882 ft | 190 kts | 346° |
| 2026-05-05 16:27 | 38.34516 | 27.13988 | 2111 ft | 215 kts | 346° |
| 2026-05-05 16:27 | 38.36059 | 27.13557 | 2493 ft | 236 kts | 347° |
| 2026-05-05 16:27 | 38.37683 | 27.13124 | 3257 ft | 240 kts | 353° |
| 2026-05-05 16:27 | 38.39320 | 27.13425 | 4072 ft | 245 kts | 26° |
| 2026-05-05 16:28 | 38.40628 | 27.14889 | 4786 ft | 256 kts | 48° |
| 2026-05-05 16:28 | 38.41718 | 27.16714 | 5594 ft | 261 kts | 52° |
| 2026-05-05 16:28 | 38.42752 | 27.18636 | 6400 ft | 266 kts | 53° |
| 2026-05-05 16:28 | 38.43786 | 27.20608 | 7157 ft | 270 kts | 54° |
| 2026-05-05 16:29 | 38.44599 | 27.22790 | 7945 ft | 276 kts | 69° |
| 2026-05-05 16:29 | 38.45042 | 27.25194 | 8748 ft | 280 kts | 73° |
| 2026-05-05 16:29 | 38.45470 | 27.27629 | 9546 ft | 282 kts | 72° |
| 2026-05-05 16:29 | 38.45920 | 27.30075 | 10220 ft | 288 kts | 71° |
| 2026-05-05 16:30 | 38.46408 | 27.32659 | 10375 ft | 312 kts | 71° |
| 2026-05-05 16:30 | 38.46926 | 27.35448 | 10588 ft | 333 kts | 75° |
| 2026-05-05 16:30 | 38.47255 | 27.38422 | 11127 ft | 342 kts | 78° |
| 2026-05-05 16:30 | 38.47569 | 27.41454 | 11734 ft | 347 kts | 78° |
| 2026-05-05 16:31 | 38.47888 | 27.44526 | 12364 ft | 351 kts | 78° |
| 2026-05-05 16:31 | 38.48215 | 27.47631 | 12996 ft | 356 kts | 78° |
| 2026-05-05 16:31 | 38.48548 | 27.50773 | 13691 ft | 358 kts | 78° |
| 2026-05-05 16:31 | 38.48914 | 27.53929 | 14249 ft | 362 kts | 76° |
| 2026-05-05 16:32 | 38.49346 | 27.57109 | 14785 ft | 365 kts | 75° |
| 2026-05-05 16:32 | 38.49810 | 27.60310 | 15348 ft | 369 kts | 75° |
| 2026-05-05 16:32 | 38.50289 | 27.63544 | 15902 ft | 372 kts | 75° |
| 2026-05-05 16:32 | 38.50767 | 27.66809 | 16451 ft | 376 kts | 75° |
| 2026-05-05 16:33 | 38.51243 | 27.70110 | 16996 ft | 380 kts | 75° |
| 2026-05-05 16:33 | 38.51718 | 27.73441 | 17533 ft | 383 kts | 75° |
| 2026-05-05 16:33 | 38.52190 | 27.76804 | 18058 ft | 387 kts | 75° |
| 2026-05-05 16:33 | 38.52657 | 27.80210 | 18552 ft | 391 kts | 76° |
| 2026-05-05 16:34 | 38.53125 | 27.83644 | 19009 ft | 394 kts | 76° |
| 2026-05-05 16:34 | 38.53596 | 27.87102 | 19466 ft | 397 kts | 76° |
| 2026-05-05 16:34 | 38.54069 | 27.90585 | 19939 ft | 399 kts | 76° |
| 2026-05-05 16:34 | 38.54546 | 27.94088 | 20395 ft | 402 kts | 76° |
| 2026-05-05 16:35 | 38.55027 | 27.97617 | 20852 ft | 404 kts | 76° |
| 2026-05-05 16:35 | 38.55509 | 28.01164 | 21288 ft | 407 kts | 76° |
| 2026-05-05 16:35 | 38.55995 | 28.04734 | 21738 ft | 409 kts | 75° |
| 2026-05-05 16:35 | 38.56486 | 28.08324 | 22180 ft | 412 kts | 76° |
| 2026-05-05 16:36 | 38.56978 | 28.11937 | 22593 ft | 414 kts | 76° |
| 2026-05-05 16:36 | 38.57468 | 28.15574 | 23021 ft | 417 kts | 76° |
| 2026-05-05 16:36 | 38.57961 | 28.19233 | 23434 ft | 419 kts | 76° |
| 2026-05-05 16:36 | 38.58455 | 28.22917 | 23801 ft | 422 kts | 77° |
| 2026-05-05 16:37 | 38.58686 | 28.26688 | 24124 ft | 430 kts | 86° |
| 2026-05-05 16:37 | 38.58644 | 28.30521 | 24445 ft | 433 kts | 86° |
| 2026-05-05 16:37 | 38.58597 | 28.34375 | 24767 ft | 435 kts | 86° |
| 2026-05-05 16:37 | 38.58548 | 28.38255 | 25102 ft | 438 kts | 87° |
| 2026-05-05 16:38 | 38.58498 | 28.42162 | 25404 ft | 441 kts | 87° |
| 2026-05-05 16:38 | 38.58449 | 28.46092 | 25706 ft | 444 kts | 87° |
| 2026-05-05 16:38 | 38.58402 | 28.50047 | 26024 ft | 446 kts | 87° |
| 2026-05-05 16:38 | 38.58352 | 28.54019 | 26311 ft | 448 kts | 87° |
| 2026-05-05 16:39 | 38.58298 | 28.58013 | 26611 ft | 451 kts | 88° |
| 2026-05-05 16:39 | 38.58248 | 28.62030 | 26911 ft | 453 kts | 85° |
| 2026-05-05 16:39 | 38.58493 | 28.66028 | 27192 ft | 451 kts | 78° |
| 2026-05-05 16:39 | 38.58908 | 28.70020 | 27492 ft | 454 kts | 79° |
| 2026-05-05 16:40 | 38.59326 | 28.74030 | 27768 ft | 457 kts | 79° |
| 2026-05-05 16:40 | 38.59741 | 28.78063 | 28051 ft | 459 kts | 79° |
| 2026-05-05 16:40 | 38.60154 | 28.82119 | 28323 ft | 462 kts | 79° |
| 2026-05-05 16:40 | 38.60568 | 28.86200 | 28596 ft | 464 kts | 79° |
| 2026-05-05 16:41 | 38.60981 | 28.90294 | 28861 ft | 466 kts | 79° |
| 2026-05-05 16:41 | 38.61394 | 28.94411 | 29128 ft | 468 kts | 79° |
| 2026-05-05 16:41 | 38.61807 | 28.98549 | 29380 ft | 470 kts | 79° |
| 2026-05-05 16:41 | 38.62222 | 29.02700 | 29654 ft | 472 kts | 79° |
| 2026-05-05 16:42 | 38.62637 | 29.06871 | 29925 ft | 474 kts | 79° |
| 2026-05-05 16:42 | 38.63053 | 29.11053 | 30163 ft | 475 kts | 79° |
| 2026-05-05 16:42 | 38.63471 | 29.15253 | 30369 ft | 477 kts | 79° |
| 2026-05-05 16:42 | 38.63889 | 29.19464 | 30663 ft | 476 kts | 79° |
| 2026-05-05 16:43 | 38.64304 | 29.23659 | 30968 ft | 475 kts | 79° |
| 2026-05-05 16:43 | 38.64713 | 29.27851 | 31285 ft | 475 kts | 79° |
| 2026-05-05 16:43 | 38.65116 | 29.32037 | 31591 ft | 474 kts | 79° |
| 2026-05-05 16:43 | 38.65515 | 29.36217 | 31886 ft | 473 kts | 79° |
| 2026-05-05 16:44 | 38.65913 | 29.40387 | 32180 ft | 472 kts | 79° |
| 2026-05-05 16:44 | 38.66313 | 29.44557 | 32474 ft | 472 kts | 79° |
| 2026-05-05 16:44 | 38.66721 | 29.48715 | 32762 ft | 471 kts | 78° |
| 2026-05-05 16:44 | 38.67192 | 29.52852 | 33077 ft | 469 kts | 77° |
| 2026-05-05 16:45 | 38.67721 | 29.56969 | 33403 ft | 468 kts | 77° |
| 2026-05-05 16:45 | 38.68278 | 29.61069 | 33711 ft | 467 kts | 76° |
| 2026-05-05 16:45 | 38.68839 | 29.65158 | 33999 ft | 466 kts | 76° |
| 2026-05-05 16:45 | 38.69389 | 29.69244 | 34247 ft | 466 kts | 77° |
| 2026-05-05 16:46 | 38.69922 | 29.73336 | 34469 ft | 466 kts | 77° |
| 2026-05-05 16:46 | 38.70440 | 29.77427 | 34699 ft | 466 kts | 77° |
| 2026-05-05 16:46 | 38.70948 | 29.81527 | 34921 ft | 466 kts | 77° |
| 2026-05-05 16:46 | 38.71452 | 29.85622 | 35047 ft | 466 kts | 78° |
| 2026-05-05 16:47 | 38.72459 | 29.93801 | 35064 ft | 464 kts | 78° |
| 2026-05-05 16:47 | 38.73473 | 30.01962 | 35071 ft | 464 kts | 78° |
| 2026-05-05 16:48 | 38.74552 | 30.10097 | 35067 ft | 463 kts | 77° |
| 2026-05-05 16:48 | 38.75659 | 30.18225 | 35070 ft | 463 kts | 78° |
| 2026-05-05 16:49 | 38.76740 | 30.26360 | 35069 ft | 463 kts | 78° |
| 2026-05-05 16:49 | 38.77805 | 30.34497 | 35067 ft | 463 kts | 78° |
| 2026-05-05 16:50 | 38.78855 | 30.42636 | 35062 ft | 463 kts | 78° |
| 2026-05-05 16:50 | 38.79905 | 30.50775 | 35065 ft | 463 kts | 78° |
| 2026-05-05 16:51 | 38.81720 | 30.58617 | 35068 ft | 457 kts | 64° |
| 2026-05-05 16:51 | 38.84236 | 30.66102 | 35066 ft | 457 kts | 64° |
| 2026-05-05 16:52 | 38.86739 | 30.73611 | 35067 ft | 458 kts | 64° |
| 2026-05-05 16:52 | 38.89224 | 30.81128 | 35066 ft | 458 kts | 64° |
| 2026-05-05 16:53 | 38.91709 | 30.88650 | 35079 ft | 457 kts | 64° |
| 2026-05-05 16:53 | 38.94196 | 30.96153 | 35089 ft | 456 kts | 64° |
| 2026-05-05 16:54 | 38.96672 | 31.03657 | 35066 ft | 456 kts | 64° |
| 2026-05-05 16:54 | 38.99139 | 31.11180 | 35063 ft | 457 kts | 64° |
| 2026-05-05 16:55 | 39.01602 | 31.18712 | 35069 ft | 457 kts | 64° |
| 2026-05-05 16:55 | 39.04063 | 31.26252 | 35077 ft | 457 kts | 64° |
| 2026-05-05 16:56 | 39.06512 | 31.33794 | 35079 ft | 457 kts | 64° |
| 2026-05-05 16:56 | 39.08959 | 31.41332 | 35077 ft | 457 kts | 64° |
| 2026-05-05 16:57 | 39.11409 | 31.48872 | 35080 ft | 456 kts | 64° |
| 2026-05-05 16:57 | 39.13845 | 31.56407 | 35086 ft | 455 kts | 63° |
| 2026-05-05 16:58 | 39.16266 | 31.63928 | 35081 ft | 454 kts | 64° |
| 2026-05-05 16:58 | 39.18285 | 31.70223 | 35070 ft | 453 kts | 64° |
| 2026-05-05 16:59 | 39.20689 | 31.77731 | 35065 ft | 453 kts | 64° |
| 2026-05-05 16:59 | 39.23090 | 31.85234 | 35077 ft | 452 kts | 63° |
| 2026-05-05 17:00 | 39.25485 | 31.92742 | 35063 ft | 452 kts | 63° |
| 2026-05-05 17:00 | 39.27873 | 32.00253 | 35056 ft | 453 kts | 63° |
| 2026-05-05 17:01 | 39.30259 | 32.07773 | 35067 ft | 453 kts | 63° |
| 2026-05-05 17:01 | 39.32640 | 32.15308 | 35063 ft | 453 kts | 63° |
| 2026-05-05 17:02 | 39.35013 | 32.22856 | 35051 ft | 453 kts | 63° |
| 2026-05-05 17:02 | 39.37366 | 32.30360 | 35047 ft | 454 kts | 64° |
| 2026-05-05 17:03 | 39.39740 | 32.37975 | 35054 ft | 454 kts | 63° |
| 2026-05-05 17:03 | 39.42044 | 32.45534 | 35051 ft | 455 kts | 64° |
| 2026-05-05 17:04 | 39.43928 | 32.53369 | 35046 ft | 462 kts | 77° |
| 2026-05-05 17:04 | 39.44815 | 32.61678 | 35043 ft | 463 kts | 78° |
| 2026-05-05 17:05 | 39.45706 | 32.69876 | 35035 ft | 463 kts | 77° |
| 2026-05-05 17:05 | 39.46606 | 32.78196 | 35026 ft | 464 kts | 77° |
| 2026-05-05 17:06 | 39.47477 | 32.86416 | 35027 ft | 464 kts | 78° |
| 2026-05-05 17:06 | 39.48353 | 32.94753 | 35026 ft | 464 kts | 77° |
| 2026-05-05 17:07 | 39.49264 | 33.03031 | 35022 ft | 462 kts | 72° |
| 2026-05-05 17:07 | 39.51313 | 33.10800 | 35000 ft | 456 kts | 64° |
| 2026-05-05 17:08 | 39.53527 | 33.18494 | 35012 ft | 456 kts | 64° |
| 2026-05-05 17:08 | 39.55740 | 33.26183 | 35018 ft | 456 kts | 64° |
| 2026-05-05 17:09 | 39.57932 | 33.33833 | 35016 ft | 455 kts | 64° |
| 2026-05-05 17:09 | 39.60144 | 33.41581 | 35007 ft | 455 kts | 64° |
| 2026-05-05 17:10 | 39.62334 | 33.49286 | 35006 ft | 455 kts | 64° |
| 2026-05-05 17:10 | 39.64523 | 33.56994 | 35002 ft | 455 kts | 65° |
| 2026-05-05 17:11 | 39.66700 | 33.64706 | 34995 ft | 455 kts | 65° |
| 2026-05-05 17:11 | 39.68879 | 33.72416 | 35010 ft | 455 kts | 65° |
| 2026-05-05 17:12 | 39.71048 | 33.80130 | 35006 ft | 455 kts | 65° |
| 2026-05-05 17:12 | 39.73216 | 33.87839 | 35011 ft | 454 kts | 65° |
| 2026-05-05 17:13 | 39.75371 | 33.95551 | 35006 ft | 454 kts | 65° |
| 2026-05-05 17:13 | 39.77510 | 34.03263 | 35007 ft | 454 kts | 65° |
| 2026-05-05 17:14 | 39.79648 | 34.10976 | 35001 ft | 453 kts | 65° |
| 2026-05-05 17:14 | 39.81785 | 34.18687 | 35021 ft | 453 kts | 66° |
| 2026-05-05 17:15 | 39.83918 | 34.26387 | 35009 ft | 452 kts | 66° |
| 2026-05-05 17:15 | 39.86040 | 34.34083 | 35005 ft | 452 kts | 66° |
| 2026-05-05 17:16 | 39.88150 | 34.41782 | 35002 ft | 452 kts | 66° |
| 2026-05-05 17:16 | 39.90255 | 34.49486 | 35007 ft | 451 kts | 67° |
| 2026-05-05 17:17 | 39.92355 | 34.57185 | 35005 ft | 451 kts | 67° |
| 2026-05-05 17:17 | 39.94454 | 34.64885 | 35000 ft | 451 kts | 67° |
| 2026-05-05 17:18 | 39.96545 | 34.72590 | 35001 ft | 451 kts | 67° |
| 2026-05-05 17:18 | 39.98631 | 34.80296 | 35003 ft | 451 kts | 68° |
| 2026-05-05 17:19 | 40.00713 | 34.88021 | 34998 ft | 452 kts | 68° |
| 2026-05-05 17:19 | 40.02786 | 34.95763 | 34981 ft | 452 kts | 68° |
| 2026-05-05 17:20 | 40.04857 | 35.03508 | 34982 ft | 452 kts | 68° |
| 2026-05-05 17:20 | 40.06934 | 35.11256 | 34988 ft | 452 kts | 68° |
| 2026-05-05 17:21 | 40.08998 | 35.19017 | 34988 ft | 452 kts | 69° |
| 2026-05-05 17:22 | 40.12093 | 35.30662 | 34987 ft | 452 kts | 69° |
| 2026-05-05 17:22 | 40.14142 | 35.38438 | 34984 ft | 453 kts | 69° |
| 2026-05-05 17:23 | 40.16193 | 35.46217 | 34988 ft | 453 kts | 69° |
| 2026-05-05 17:23 | 40.18240 | 35.54004 | 34987 ft | 453 kts | 69° |
| 2026-05-05 17:24 | 40.20280 | 35.61802 | 34986 ft | 453 kts | 70° |
| 2026-05-05 17:24 | 40.22308 | 35.69606 | 34985 ft | 453 kts | 70° |
| 2026-05-05 17:25 | 40.24336 | 35.77420 | 34994 ft | 453 kts | 70° |
| 2026-05-05 17:25 | 40.26369 | 35.85235 | 34998 ft | 454 kts | 70° |
| 2026-05-05 17:26 | 40.28391 | 35.93056 | 34995 ft | 454 kts | 70° |
| 2026-05-05 17:26 | 40.30408 | 36.00890 | 35000 ft | 454 kts | 70° |
| 2026-05-05 17:27 | 40.32415 | 36.08730 | 35004 ft | 454 kts | 71° |
| 2026-05-05 17:27 | 40.34403 | 36.16535 | 35005 ft | 455 kts | 71° |
| 2026-05-05 17:28 | 40.36410 | 36.24398 | 35009 ft | 455 kts | 71° |
| 2026-05-05 17:28 | 40.38418 | 36.32278 | 35015 ft | 455 kts | 71° |
| 2026-05-05 17:29 | 40.40417 | 36.40162 | 35020 ft | 456 kts | 71° |
| 2026-05-05 17:29 | 40.42415 | 36.48062 | 35026 ft | 457 kts | 71° |
| 2026-05-05 17:30 | 40.44410 | 36.55982 | 35027 ft | 457 kts | 71° |
| 2026-05-05 17:30 | 40.46401 | 36.63912 | 35031 ft | 458 kts | 71° |
| 2026-05-05 17:31 | 40.48403 | 36.71907 | 35036 ft | 458 kts | 72° |
| 2026-05-05 17:31 | 40.50390 | 36.79859 | 35044 ft | 458 kts | 72° |
| 2026-05-05 17:32 | 40.52370 | 36.87817 | 35027 ft | 459 kts | 72° |
| 2026-05-05 17:32 | 40.53359 | 36.91805 | 34799 ft | 459 kts | 72° |
| 2026-05-05 17:32 | 40.54344 | 36.95793 | 34566 ft | 458 kts | 72° |
| 2026-05-05 17:32 | 40.55308 | 36.99716 | 34353 ft | 458 kts | 73° |
| 2026-05-05 17:33 | 40.56283 | 37.03700 | 34139 ft | 457 kts | 73° |
| 2026-05-05 17:33 | 40.57257 | 37.07672 | 33870 ft | 456 kts | 73° |
| 2026-05-05 17:33 | 40.58230 | 37.11639 | 33599 ft | 456 kts | 73° |
| 2026-05-05 17:33 | 40.59206 | 37.15615 | 33337 ft | 456 kts | 73° |
| 2026-05-05 17:34 | 40.60176 | 37.19574 | 33069 ft | 454 kts | 73° |
| 2026-05-05 17:34 | 40.61143 | 37.23522 | 32801 ft | 452 kts | 73° |
| 2026-05-05 17:34 | 40.62116 | 37.27500 | 32536 ft | 449 kts | 73° |
| 2026-05-05 17:34 | 40.63070 | 37.31407 | 32286 ft | 447 kts | 73° |
| 2026-05-05 17:35 | 40.64018 | 37.35293 | 32024 ft | 445 kts | 73° |
| 2026-05-05 17:35 | 40.64948 | 37.39114 | 31770 ft | 443 kts | 73° |
| 2026-05-05 17:35 | 40.65892 | 37.43019 | 31518 ft | 441 kts | 74° |
| 2026-05-05 17:35 | 40.66818 | 37.46857 | 31268 ft | 439 kts | 73° |
| 2026-05-05 17:36 | 40.67740 | 37.50675 | 31022 ft | 436 kts | 73° |
| 2026-05-05 17:36 | 40.68657 | 37.54474 | 30780 ft | 434 kts | 73° |
| 2026-05-05 17:36 | 40.69568 | 37.58256 | 30537 ft | 432 kts | 74° |
| 2026-05-05 17:36 | 40.70471 | 37.62021 | 30294 ft | 430 kts | 73° |
| 2026-05-05 17:37 | 40.71370 | 37.65769 | 30036 ft | 428 kts | 73° |
| 2026-05-05 17:37 | 40.71962 | 37.68238 | 29844 ft | 425 kts | 74° |
| 2026-05-05 17:37 | 40.72847 | 37.71940 | 29550 ft | 422 kts | 74° |
| 2026-05-05 17:37 | 40.74020 | 37.76861 | 29159 ft | 419 kts | 74° |
| 2026-05-05 17:38 | 40.74598 | 37.79284 | 28971 ft | 418 kts | 74° |
| 2026-05-05 17:38 | 40.75467 | 37.82930 | 28685 ft | 416 kts | 74° |
| 2026-05-05 17:38 | 40.76329 | 37.86562 | 28393 ft | 414 kts | 74° |
| 2026-05-05 17:38 | 40.77189 | 37.90176 | 28125 ft | 412 kts | 74° |
| 2026-05-05 17:39 | 40.78046 | 37.93776 | 27859 ft | 410 kts | 74° |
| 2026-05-05 17:39 | 40.78898 | 37.97361 | 27586 ft | 409 kts | 74° |
| 2026-05-05 17:39 | 40.79744 | 38.00932 | 27302 ft | 408 kts | 75° |
| 2026-05-05 17:39 | 40.80586 | 38.04503 | 27045 ft | 407 kts | 75° |
| 2026-05-05 17:40 | 40.81422 | 38.08065 | 26778 ft | 406 kts | 75° |
| 2026-05-05 17:40 | 40.82254 | 38.11612 | 26518 ft | 404 kts | 75° |
| 2026-05-05 17:40 | 40.83084 | 38.15147 | 26258 ft | 402 kts | 75° |
| 2026-05-05 17:40 | 40.83912 | 38.18669 | 26003 ft | 401 kts | 75° |
| 2026-05-05 17:41 | 40.84734 | 38.22172 | 25750 ft | 399 kts | 75° |
| 2026-05-05 17:41 | 40.85554 | 38.25663 | 25493 ft | 397 kts | 75° |
| 2026-05-05 17:41 | 40.86369 | 38.29143 | 25248 ft | 396 kts | 75° |
| 2026-05-05 17:41 | 40.87178 | 38.32608 | 24993 ft | 394 kts | 75° |
| 2026-05-05 17:42 | 40.87983 | 38.36064 | 24750 ft | 393 kts | 75° |
| 2026-05-05 17:42 | 40.88781 | 38.39510 | 24507 ft | 392 kts | 75° |
| 2026-05-05 17:42 | 40.89574 | 38.42947 | 24274 ft | 390 kts | 75° |
| 2026-05-05 17:42 | 40.90367 | 38.46370 | 24029 ft | 389 kts | 75° |
| 2026-05-05 17:43 | 40.91157 | 38.49779 | 23793 ft | 387 kts | 75° |
| 2026-05-05 17:43 | 40.91941 | 38.53174 | 23547 ft | 386 kts | 75° |
| 2026-05-05 17:43 | 40.92721 | 38.56562 | 23265 ft | 384 kts | 75° |
| 2026-05-05 17:43 | 40.93496 | 38.59937 | 22988 ft | 383 kts | 75° |
| 2026-05-05 17:44 | 40.94268 | 38.63296 | 22702 ft | 381 kts | 75° |
| 2026-05-05 17:44 | 40.95036 | 38.66639 | 22434 ft | 380 kts | 75° |
| 2026-05-05 17:44 | 40.95803 | 38.69983 | 22158 ft | 380 kts | 76° |
| 2026-05-05 17:44 | 40.96567 | 38.73319 | 21879 ft | 379 kts | 76° |
| 2026-05-05 17:45 | 40.97329 | 38.76647 | 21619 ft | 377 kts | 76° |
| 2026-05-05 17:45 | 40.98088 | 38.79963 | 21351 ft | 375 kts | 76° |
| 2026-05-05 17:45 | 40.98840 | 38.83263 | 21092 ft | 374 kts | 76° |
| 2026-05-05 17:45 | 40.99587 | 38.86549 | 20835 ft | 372 kts | 76° |
| 2026-05-05 17:46 | 41.00331 | 38.89828 | 20578 ft | 371 kts | 76° |
| 2026-05-05 17:46 | 41.01071 | 38.93092 | 20325 ft | 370 kts | 76° |
| 2026-05-05 17:46 | 41.01806 | 38.96342 | 20072 ft | 368 kts | 76° |
| 2026-05-05 17:46 | 41.02538 | 38.99583 | 19819 ft | 367 kts | 76° |
| 2026-05-05 17:47 | 41.03267 | 39.02806 | 19575 ft | 365 kts | 76° |
| 2026-05-05 17:47 | 41.03992 | 39.06021 | 19327 ft | 363 kts | 75° |
| 2026-05-05 17:47 | 41.04713 | 39.09221 | 19087 ft | 362 kts | 75° |
| 2026-05-05 17:47 | 41.05403 | 39.12421 | 18845 ft | 360 kts | 79° |
| 2026-05-05 17:48 | 41.05734 | 39.15667 | 18487 ft | 354 kts | 90° |
| 2026-05-05 17:48 | 41.05742 | 39.18910 | 18036 ft | 351 kts | 92° |
| 2026-05-05 17:48 | 41.05744 | 39.22136 | 17583 ft | 349 kts | 92° |
| 2026-05-05 17:48 | 41.05748 | 39.25338 | 17144 ft | 346 kts | 91° |
| 2026-05-05 17:49 | 41.05752 | 39.28520 | 16711 ft | 344 kts | 91° |
| 2026-05-05 17:49 | 41.05754 | 39.31678 | 16290 ft | 342 kts | 91° |
| 2026-05-05 17:49 | 41.05756 | 39.34816 | 15881 ft | 340 kts | 91° |
| 2026-05-05 17:49 | 41.05758 | 39.37938 | 15468 ft | 338 kts | 91° |
| 2026-05-05 17:50 | 41.05759 | 39.41041 | 15075 ft | 336 kts | 91° |
| 2026-05-05 17:50 | 41.05763 | 39.44126 | 14683 ft | 334 kts | 91° |
| 2026-05-05 17:50 | 41.05766 | 39.47191 | 14312 ft | 332 kts | 91° |
| 2026-05-05 17:50 | 41.05764 | 39.50240 | 13946 ft | 330 kts | 92° |
| 2026-05-05 17:51 | 41.05757 | 39.53266 | 13545 ft | 328 kts | 92° |
| 2026-05-05 17:51 | 41.05750 | 39.56272 | 13144 ft | 325 kts | 92° |
| 2026-05-05 17:51 | 41.05743 | 39.59253 | 12750 ft | 323 kts | 91° |
| 2026-05-05 17:51 | 41.05739 | 39.62212 | 12359 ft | 320 kts | 91° |
| 2026-05-05 17:52 | 41.05734 | 39.65148 | 11972 ft | 317 kts | 91° |
| 2026-05-05 17:52 | 41.05729 | 39.68100 | 11584 ft | 315 kts | 91° |
| 2026-05-05 17:52 | 41.05725 | 39.70993 | 11176 ft | 313 kts | 92° |
| 2026-05-05 17:52 | 41.05720 | 39.73872 | 10775 ft | 312 kts | 92° |
| 2026-05-05 17:53 | 41.05715 | 39.76736 | 10402 ft | 310 kts | 92° |
| 2026-05-05 17:53 | 41.05707 | 39.79577 | 10038 ft | 307 kts | 92° |
| 2026-05-05 17:53 | 41.05699 | 39.82335 | 9860 ft | 298 kts | 92° |
| 2026-05-05 17:53 | 41.05689 | 39.85064 | 9721 ft | 287 kts | 92° |
| 2026-05-05 17:54 | 41.05679 | 39.87640 | 9489 ft | 281 kts | 92° |
| 2026-05-05 17:54 | 41.05667 | 39.90214 | 9142 ft | 278 kts | 92° |
| 2026-05-05 17:54 | 41.05652 | 39.92804 | 8767 ft | 277 kts | 91° |
| 2026-05-05 17:54 | 41.05637 | 39.95346 | 8465 ft | 273 kts | 91° |
| 2026-05-05 17:55 | 41.05624 | 39.97806 | 8334 ft | 262 kts | 91° |
| 2026-05-05 17:55 | 41.05612 | 40.00169 | 8200 ft | 251 kts | 91° |
| 2026-05-05 17:55 | 41.05586 | 40.02437 | 8042 ft | 242 kts | 96° |
| 2026-05-05 17:55 | 41.05288 | 40.04605 | 7758 ft | 238 kts | 108° |
| 2026-05-05 17:56 | 41.04714 | 40.06647 | 7438 ft | 236 kts | 111° |
| 2026-05-05 17:56 | 41.04123 | 40.08676 | 7104 ft | 236 kts | 111° |
| 2026-05-05 17:56 | 41.03482 | 40.10669 | 6756 ft | 235 kts | 122° |
| 2026-05-05 17:56 | 41.02374 | 40.12225 | 6455 ft | 233 kts | 146° |
| 2026-05-05 17:57 | 41.00876 | 40.13019 | 6076 ft | 234 kts | 172° |
| 2026-05-05 17:57 | 40.99257 | 40.12915 | 5714 ft | 235 kts | 192° |
| 2026-05-05 17:57 | 40.97664 | 40.12441 | 5360 ft | 235 kts | 192° |
| 2026-05-05 17:57 | 40.96070 | 40.11973 | 5021 ft | 234 kts | 192° |
| 2026-05-05 17:58 | 40.94496 | 40.11448 | 4700 ft | 233 kts | 202° |
| 2026-05-05 17:58 | 40.93114 | 40.10365 | 4362 ft | 231 kts | 222° |
| 2026-05-05 17:58 | 40.92104 | 40.08734 | 4032 ft | 230 kts | 242° |
| 2026-05-05 17:58 | 40.91582 | 40.06759 | 3748 ft | 227 kts | 263° |
| 2026-05-05 17:59 | 40.91598 | 40.04679 | 3514 ft | 226 kts | 282° |
| 2026-05-05 17:59 | 40.92102 | 40.02719 | 3352 ft | 226 kts | 293° |
| 2026-05-05 17:59 | 40.92701 | 40.00816 | 3190 ft | 221 kts | 293° |
| 2026-05-05 17:59 | 40.93270 | 39.98998 | 3013 ft | 207 kts | 293° |
| 2026-05-05 18:00 | 40.93813 | 39.97262 | 2863 ft | 203 kts | 293° |
| 2026-05-05 18:00 | 40.94363 | 39.95500 | 2750 ft | 203 kts | 293° |
| 2026-05-05 18:00 | 40.94877 | 39.93851 | 2543 ft | 186 kts | 293° |
| 2026-05-05 18:00 | 40.95359 | 39.92309 | 2262 ft | 175 kts | 294° |
| 2026-05-05 18:01 | 40.95802 | 39.90884 | 2015 ft | 159 kts | 293° |
| 2026-05-05 18:01 | 40.96207 | 39.89584 | 1766 ft | 147 kts | 293° |
| 2026-05-05 18:01 | 40.96590 | 39.88356 | 1534 ft | 143 kts | 293° |
| 2026-05-05 18:01 | 40.96959 | 39.87170 | 1317 ft | 140 kts | 293° |
| 2026-05-05 18:02 | 40.97329 | 39.85981 | 1102 ft | 140 kts | 293° |
| 2026-05-05 18:02 | 40.97701 | 39.84795 | 901 ft | 140 kts | 292° |
| 2026-05-05 18:02 | 40.98074 | 39.83611 | 703 ft | 139 kts | 292° |
| 2026-05-05 18:02 | 40.98439 | 39.82431 | 486 ft | 138 kts | 292° |
| 2026-05-05 18:03 | 40.98795 | 39.81257 | 287 ft | 137 kts | 291° |
| 2026-05-05 18:03 | 40.99160 | 39.80096 | 106 ft | 134 kts | 292° |
| 2026-05-05 18:03 | 40.99431 | 39.79223 | 106 ft | 61 kts | 292° |
| 2026-05-05 18:03 | 40.99541 | 39.78855 | 103 ft | 31 kts | 285° |
| 2026-05-05 18:04 | 40.99560 | 39.78622 | 105 ft | 24 kts | 264° |
| 2026-05-05 18:04 | 40.99551 | 39.78488 | 114 ft | 7 kts | 265° |
| 2026-05-05 18:04 | 40.99547 | 39.78434 | 115 ft | 5 kts | 265° |
| 2026-05-05 18:04 | 40.99545 | 39.78400 | 113 ft | 3 kts | 265° |
| 2026-05-05 18:05 | 40.99545 | 39.78389 | 112 ft | 2 kts | 266° |
| 2026-05-05 18:05 | 40.99557 | 39.78323 | 115 ft | 11 kts | 289° |
| 2026-05-05 18:05 | 40.99589 | 39.78231 | 113 ft | 11 kts | 296° |
| 2026-05-05 18:05 | 40.99618 | 39.78147 | 115 ft | 6 kts | 290° |
| 2026-05-05 18:06 | 40.99609 | 39.78108 | 115 ft | 3 kts | 241° |
| 2026-05-05 18:06 | 40.99600 | 39.78102 | 115 ft | 2 kts | 210° |
| 2026-05-05 18:06 | 40.99579 | 39.78090 | 116 ft | 3 kts | 201° |
| 2026-05-05 18:06 | 40.99566 | 39.78083 | 114 ft | 0 kts | 202° |
| 2026-05-05 18:07 | 40.99565 | 39.78082 | 114 ft | 0 kts | 202° |